Apple Valley, North Dakota
Current Conditions -  °F | °C
As of 11:52 AM on Thursday 27 Nov 2014 (Local Time) from KBIS Reporting Station
Overcast Overcast  
Wind Chill: -10°   Ceiling: 7500
Heat Index:   Visibility: 10mi
Dew Point:   Wind: 14mph
Humidity: 84%   Direction: 130°SE
Pressure: 30.21"   Gusts: NA
Location:  46.8954°N, 100.519°W
Report Text: KBIS 271752Z 13012KT 10SM OVC075 M14/M16 A3021 RMK AO2 SLP280 T11391161 11139 21228 58040
Loading
Personal Weather Stations






























Interactive Weather Map New forecast layout! Learn more

10-Day Weather Forecast

Advertisements
Track Severe Weather on mobile